createdAt,value
2023-03-05T00:01:26.736Z,102520.03
2023-03-05T00:03:55.513Z,102510.06
2023-03-05T00:06:24.416Z,102504.78
2023-03-05T00:08:53.325Z,102506.28
2023-03-05T00:11:20.859Z,102494.09
2023-03-05T00:13:47.443Z,102505.22
2023-03-05T00:16:15.771Z,102509.66
2023-03-05T00:18:42.323Z,102489.66
2023-03-05T00:21:22.901Z,102496.59
2023-03-05T00:23:50.732Z,102492.19
2023-03-05T00:26:19.300Z,102490.72
2023-03-05T00:28:49.876Z,102485.34
2023-03-05T00:31:21.700Z,102485.00
2023-03-05T00:33:59.999Z,102489.53
2023-03-05T00:36:27.285Z,102476.72
2023-03-05T00:38:54.118Z,102479.66
2023-03-05T00:41:20.589Z,102481.03
2023-03-05T00:43:47.860Z,102475.97
2023-03-05T00:46:14.589Z,102473.34
2023-03-05T00:48:41.145Z,102479.53
2023-03-05T00:51:09.303Z,102472.69
2023-03-05T00:53:36.050Z,102482.47
2023-03-05T00:56:02.644Z,102465.53
2023-03-05T00:58:29.916Z,102472.47
2023-03-05T01:01:01.407Z,102472.34
2023-03-05T01:03:28.347Z,102464.78
2023-03-05T01:05:54.861Z,102466.69
2023-03-05T01:08:21.395Z,102465.19
2023-03-05T01:10:48.392Z,102459.22
2023-03-05T01:13:14.957Z,102458.16
2023-03-05T01:15:41.486Z,102457.31
2023-03-05T01:18:08.185Z,102451.13
2023-03-05T01:20:34.732Z,102448.69
2023-03-05T01:23:01.911Z,102443.72
2023-03-05T01:25:28.703Z,102453.09
2023-03-05T01:27:55.184Z,102438.94
2023-03-05T01:30:21.780Z,102437.25
2023-03-05T01:32:48.311Z,102434.50
2023-03-05T01:35:21.238Z,102440.63
2023-03-05T01:37:48.073Z,102433.03
2023-03-05T01:40:19.633Z,102433.16
2023-03-05T01:42:55.621Z,102415.91
2023-03-05T01:45:22.175Z,102423.78
2023-03-05T01:47:48.986Z,102409.06
2023-03-05T01:50:22.873Z,102396.78
2023-03-05T01:52:58.828Z,102401.09
2023-03-05T01:55:29.093Z,102391.53
2023-03-05T01:58:00.103Z,102395.09
2023-03-05T02:00:30.844Z,102378.63
2023-03-05T02:03:01.644Z,102383.75
2023-03-05T02:05:36.694Z,102389.75
2023-03-05T02:08:08.691Z,102379.97
2023-03-05T02:10:38.580Z,102367.91
2023-03-05T02:13:10.804Z,102375.06
2023-03-05T02:15:38.561Z,102369.69
2023-03-05T02:18:06.635Z,102367.25
2023-03-05T02:20:51.755Z,102362.00
2023-03-05T02:23:21.210Z,102357.81
2023-03-05T02:25:47.683Z,102352.25
2023-03-05T02:28:20.360Z,102348.78
2023-03-05T02:30:46.870Z,102352.16
2023-03-05T02:33:15.717Z,102349.00
2023-03-05T02:35:43.730Z,102345.63
2023-03-05T02:38:11.484Z,102345.63
2023-03-05T02:40:38.184Z,102339.44
2023-03-05T02:43:04.956Z,102341.13
2023-03-05T02:45:31.490Z,102331.66
2023-03-05T02:47:58.030Z,102329.88
2023-03-05T02:50:26.223Z,102331.03
2023-03-05T02:52:52.734Z,102326.53
2023-03-05T02:55:19.436Z,102319.78
2023-03-05T02:57:45.927Z,102310.78
2023-03-05T03:00:13.012Z,102310.84
2023-03-05T03:02:39.748Z,102312.25
2023-03-05T03:05:06.730Z,102307.28
2023-03-05T03:07:34.491Z,102307.94
2023-03-05T03:10:01.004Z,102298.66
2023-03-05T03:12:27.544Z,102295.09
2023-03-05T03:14:54.047Z,102283.88
2023-03-05T03:17:20.523Z,102283.78
2023-03-05T03:19:47.275Z,102285.53
2023-03-05T03:22:15.656Z,102280.94
2023-03-05T03:24:43.351Z,102281.97
2023-03-05T03:27:10.133Z,102278.53
2023-03-05T03:29:36.881Z,102280.50
2023-03-05T03:32:04.678Z,102270.88
2023-03-05T03:34:31.507Z,102273.56
2023-03-05T03:36:57.931Z,102276.13
2023-03-05T03:39:25.500Z,102269.47
2023-03-05T03:41:53.248Z,102270.00
2023-03-05T03:44:21.051Z,102266.44
2023-03-05T03:46:49.533Z,102255.94
2023-03-05T03:49:21.902Z,102256.78
2023-03-05T03:51:49.952Z,102252.78
2023-03-05T03:54:18.388Z,102249.22
2023-03-05T03:56:45.346Z,102253.44
2023-03-05T03:59:12.447Z,102244.69
2023-03-05T04:01:38.987Z,102246.50
2023-03-05T04:04:06.342Z,102244.09
2023-03-05T04:06:33.686Z,102247.44
2023-03-05T04:09:00.199Z,102251.53
2023-03-05T04:11:26.692Z,102244.41
2023-03-05T04:13:53.185Z,102241.78
2023-03-05T04:16:19.703Z,102242.94
2023-03-05T04:18:46.258Z,102236.00
2023-03-05T04:21:12.847Z,102230.84
2023-03-05T04:23:39.747Z,102234.13
2023-03-05T04:26:06.675Z,102238.28
2023-03-05T04:28:33.732Z,102234.13
2023-03-05T04:31:00.296Z,102234.94
2023-03-05T04:33:26.875Z,102217.09
2023-03-05T04:35:53.446Z,102221.63
2023-03-05T04:38:20.118Z,102218.56
2023-03-05T04:40:46.952Z,102222.22
2023-03-05T04:43:13.476Z,102216.91
2023-03-05T04:45:41.615Z,102215.22
2023-03-05T04:48:09.215Z,102212.25
2023-03-05T04:50:35.730Z,102203.97
2023-03-05T04:53:03.311Z,102202.09
2023-03-05T04:55:30.108Z,102197.06
2023-03-05T04:57:56.733Z,102195.38
2023-03-05T05:00:23.361Z,102193.56
2023-03-05T05:02:50.914Z,102198.81
2023-03-05T05:05:20.190Z,102197.78
2023-03-05T05:07:47.222Z,102203.13
2023-03-05T05:10:15.373Z,102201.34
2023-03-05T05:12:42.602Z,102201.34
2023-03-05T05:15:10.226Z,102195.66
2023-03-05T05:17:36.746Z,102194.00
2023-03-05T05:20:06.713Z,102179.19
2023-03-05T05:22:33.786Z,102181.00
2023-03-05T05:25:00.619Z,102181.00
2023-03-05T05:27:27.140Z,102179.53
2023-03-05T05:29:53.663Z,102171.34
2023-03-05T05:32:22.296Z,102176.47
2023-03-05T05:34:49.288Z,102168.19
2023-03-05T05:37:15.742Z,102166.38
2023-03-05T05:39:42.188Z,102163.16
2023-03-05T05:42:08.715Z,102163.34
2023-03-05T05:44:35.324Z,102165.25
2023-03-05T05:47:01.983Z,102165.97
2023-03-05T05:49:28.520Z,102160.81
2023-03-05T05:51:55.095Z,102162.41
2023-03-05T05:54:21.559Z,102163.34
2023-03-05T05:56:48.044Z,102158.84
2023-03-05T05:59:14.511Z,102156.84
2023-03-05T06:01:41.143Z,102154.00
2023-03-05T06:04:07.621Z,102159.03
2023-03-05T06:06:35.014Z,102152.13
2023-03-05T06:09:02.144Z,102153.72
2023-03-05T06:11:28.912Z,102162.31
2023-03-05T06:13:55.709Z,102151.16
2023-03-05T06:16:24.533Z,102155.25
2023-03-05T06:18:52.230Z,102155.16
2023-03-05T06:21:21.050Z,102151.59
2023-03-05T06:23:48.741Z,102148.97
2023-03-05T06:26:18.349Z,102145.63
2023-03-05T06:28:45.286Z,102148.25
2023-03-05T06:31:23.391Z,102149.59
2023-03-05T06:33:50.426Z,102149.50
2023-03-05T06:36:19.641Z,102142.78
2023-03-05T06:38:48.384Z,102148.03
2023-03-05T06:41:18.770Z,102142.56
2023-03-05T06:43:46.944Z,102149.06
2023-03-05T06:46:22.922Z,102149.72
2023-03-05T06:48:50.684Z,102145.72
2023-03-05T06:51:22.892Z,102146.56
2023-03-05T06:53:49.870Z,102147.00
2023-03-05T06:56:17.973Z,102143.72
2023-03-05T06:58:45.956Z,102147.06
2023-03-05T07:01:13.346Z,102143.63
2023-03-05T07:03:40.382Z,102140.06
2023-03-05T07:06:09.625Z,102144.69
2023-03-05T07:08:36.921Z,102134.59
2023-03-05T07:11:04.174Z,102140.38
2023-03-05T07:13:30.731Z,102140.03
2023-03-05T07:15:57.336Z,102141.63
2023-03-05T07:18:23.821Z,102135.44
2023-03-05T07:20:50.282Z,102142.97
2023-03-05T07:23:16.775Z,102142.75
2023-03-05T07:25:43.313Z,102138.25
2023-03-05T07:28:10.677Z,102147.38
2023-03-05T07:30:37.299Z,102130.78
2023-03-05T07:33:03.927Z,102136.56
2023-03-05T07:35:30.421Z,102134.31
2023-03-05T07:37:56.984Z,102128.25
2023-03-05T07:40:23.577Z,102131.19
2023-03-05T07:42:50.187Z,102138.84
2023-03-05T07:45:16.704Z,102131.91
2023-03-05T07:47:43.153Z,102132.41
2023-03-05T07:50:11.433Z,102130.09
2023-03-05T07:52:37.901Z,102127.75
2023-03-05T07:55:04.705Z,102123.38
2023-03-05T07:57:31.168Z,102119.94
2023-03-05T07:59:57.687Z,102118.56
2023-03-05T08:02:24.135Z,102122.41
2023-03-05T08:04:50.647Z,102119.34
2023-03-05T08:07:17.271Z,102116.59
2023-03-05T08:09:44.053Z,102109.03
2023-03-05T08:12:10.578Z,102108.38
2023-03-05T08:14:37.997Z,102105.50
2023-03-05T08:17:05.989Z,102113.53
2023-03-05T08:19:33.524Z,102105.28
2023-03-05T08:22:00.071Z,102102.41
2023-03-05T08:24:29.643Z,102102.88
2023-03-05T08:26:57.584Z,102109.03
2023-03-05T08:29:24.849Z,102101.88
2023-03-05T08:31:53.608Z,102101.53
2023-03-05T08:34:21.506Z,102091.25
2023-03-05T08:36:48.999Z,102091.50
2023-03-05T08:39:15.563Z,102092.47
2023-03-05T08:41:42.145Z,102093.13
2023-03-05T08:44:09.058Z,102091.19
2023-03-05T08:46:35.708Z,102086.16
2023-03-05T08:49:02.477Z,102078.63
2023-03-05T08:51:29.012Z,102072.41
2023-03-05T08:53:57.953Z,102068.09
2023-03-05T08:56:26.268Z,102073.50
2023-03-05T08:58:53.065Z,102069.78
2023-03-05T09:01:20.133Z,102050.16
2023-03-05T09:03:46.583Z,102071.66
2023-03-05T09:06:13.079Z,102056.44
2023-03-05T09:08:39.723Z,102061.00
2023-03-05T09:11:08.055Z,102060.66
2023-03-05T09:13:35.057Z,102060.03
2023-03-05T09:16:07.739Z,102051.63
2023-03-05T09:18:36.702Z,102053.22
2023-03-05T09:21:08.194Z,102058.56
2023-03-05T09:23:34.710Z,102053.19
2023-03-05T09:26:01.269Z,102058.19
2023-03-05T09:28:27.934Z,102060.09
2023-03-05T09:30:55.254Z,102053.31
2023-03-05T09:33:21.741Z,102053.22
2023-03-05T09:35:48.811Z,102049.63
2023-03-05T09:38:15.375Z,102046.25
2023-03-05T09:41:07.708Z,102047.69
2023-03-05T09:43:46.007Z,102042.16
2023-03-05T09:46:25.002Z,102049.69
2023-03-05T09:48:54.066Z,102043.31
2023-03-05T09:51:28.069Z,102052.91
2023-03-05T09:54:13.985Z,102047.16
2023-03-05T09:56:48.766Z,102043.63
2023-03-05T09:59:27.440Z,102036.44
2023-03-05T10:02:05.265Z,102041.81
2023-03-05T10:04:52.170Z,102030.19
2023-03-05T10:07:26.028Z,102030.31
2023-03-05T10:10:05.359Z,102030.53
2023-03-05T10:12:43.852Z,102025.19
2023-03-05T10:15:16.175Z,102025.00
2023-03-05T10:17:53.262Z,102026.22
2023-03-05T10:20:45.738Z,102012.66
2023-03-05T10:23:24.569Z,102012.66
2023-03-05T10:26:15.464Z,102018.09
2023-03-05T10:28:59.317Z,102011.94
2023-03-05T10:31:37.730Z,102006.03
2023-03-05T10:34:15.360Z,102003.94
2023-03-05T10:36:46.776Z,101999.91
2023-03-05T10:39:31.507Z,101992.56
2023-03-05T10:42:13.526Z,101996.19
2023-03-05T10:44:46.247Z,101986.97
2023-03-05T10:47:40.881Z,101983.16
2023-03-05T10:50:20.880Z,101985.91
2023-03-05T10:52:52.805Z,101979.22
2023-03-05T10:55:21.712Z,101977.72
2023-03-05T10:57:48.489Z,101964.16
2023-03-05T11:00:26.578Z,101962.09
2023-03-05T11:02:59.529Z,101952.66
2023-03-05T11:05:51.570Z,101964.69
2023-03-05T11:08:23.765Z,101952.97
2023-03-05T11:11:03.995Z,101944.09
2023-03-05T11:13:31.032Z,101947.72
2023-03-05T11:16:02.642Z,101942.81
2023-03-05T11:18:34.389Z,101939.91
2023-03-05T11:21:32.005Z,101936.72
2023-03-05T11:24:18.760Z,101938.25
2023-03-05T11:26:51.230Z,101930.34
2023-03-05T11:29:24.264Z,101916.84
2023-03-05T11:31:52.319Z,101914.91
2023-03-05T11:34:18.743Z,101916.28
2023-03-05T11:36:53.101Z,101907.50
2023-03-05T11:39:24.599Z,101910.66
2023-03-05T11:42:13.028Z,101906.19
2023-03-05T11:44:50.222Z,101904.91
2023-03-05T11:47:31.678Z,101894.44
2023-03-05T11:50:12.714Z,101894.97
2023-03-05T11:52:48.021Z,101884.56
2023-03-05T11:55:19.788Z,101887.78
2023-03-05T11:58:01.906Z,101869.44
2023-03-05T12:00:31.073Z,101875.84
2023-03-05T12:03:01.025Z,101877.53
2023-03-05T12:05:29.420Z,101861.22
2023-03-05T12:07:59.578Z,101865.94
2023-03-05T12:10:27.234Z,101859.19
2023-03-05T12:13:12.265Z,101852.03
2023-03-05T12:15:50.003Z,101857.50
2023-03-05T12:18:43.281Z,101838.19
2023-03-05T12:21:29.912Z,101832.75
2023-03-05T12:24:01.747Z,101832.41
2023-03-05T12:26:52.903Z,101826.50
2023-03-05T12:29:33.012Z,101832.88
2023-03-05T12:32:01.196Z,101825.75
2023-03-05T12:34:47.449Z,101826.97
2023-03-05T12:37:23.347Z,101821.66
2023-03-05T12:40:17.722Z,101807.63
2023-03-05T12:43:03.122Z,101808.84
2023-03-05T12:45:38.748Z,101795.38
2023-03-05T12:48:10.661Z,101800.22
2023-03-05T12:50:37.057Z,101791.06
2023-03-05T12:53:13.947Z,101793.03
2023-03-05T12:56:12.701Z,101788.81
2023-03-05T12:58:49.972Z,101780.09
2023-03-05T13:01:28.520Z,101775.09
2023-03-05T13:03:58.611Z,101764.44
2023-03-05T13:06:34.218Z,101765.66
2023-03-05T13:09:08.098Z,101762.84
2023-03-05T13:11:39.082Z,101758.16
2023-03-05T13:14:23.529Z,101748.97
2023-03-05T13:16:50.408Z,101746.78
2023-03-05T13:19:18.189Z,101746.97
2023-03-05T13:21:45.115Z,101741.19
2023-03-05T13:24:19.795Z,101742.13
2023-03-05T13:26:46.312Z,101739.09
2023-03-05T13:29:21.944Z,101735.34
2023-03-05T13:31:56.049Z,101721.00
2023-03-05T13:34:32.051Z,101728.13
2023-03-05T13:37:05.454Z,101713.16
2023-03-05T13:39:59.935Z,101721.41
2023-03-05T13:42:34.825Z,101719.50
2023-03-05T13:45:05.161Z,101707.38
2023-03-05T13:47:34.596Z,101701.63
2023-03-05T13:50:05.743Z,101701.34
2023-03-05T13:52:37.576Z,101695.53
2023-03-05T13:55:16.902Z,101692.28
2023-03-05T13:57:50.315Z,101701.28
2023-03-05T14:00:37.082Z,101694.78
2023-03-05T14:03:24.793Z,101691.66
2023-03-05T14:05:51.376Z,101688.19
2023-03-05T14:08:25.441Z,101685.16
2023-03-05T14:10:54.338Z,101691.25
2023-03-05T14:13:23.627Z,101687.13
2023-03-05T14:16:10.891Z,101686.34
2023-03-05T14:18:37.839Z,101684.91
2023-03-05T14:21:11.200Z,101672.13
2023-03-05T14:23:37.722Z,101674.31
2023-03-05T14:26:31.687Z,101657.22
2023-03-05T14:29:17.667Z,101656.13
2023-03-05T14:31:54.959Z,101646.69
2023-03-05T14:34:28.532Z,101643.59
2023-03-05T14:36:58.976Z,101638.97
2023-03-05T14:39:46.411Z,101647.28
2023-03-05T14:42:39.031Z,101647.03
2023-03-05T14:45:19.132Z,101640.81
2023-03-05T14:47:45.804Z,101635.31
2023-03-05T14:50:17.064Z,101634.41
2023-03-05T14:52:44.766Z,101632.06
2023-03-05T14:55:23.106Z,101632.94
2023-03-05T14:57:51.664Z,101623.81
2023-03-05T15:00:25.252Z,101619.97
2023-03-05T15:02:52.026Z,101614.13
2023-03-05T15:05:19.309Z,101605.38
2023-03-05T15:07:46.841Z,101616.34
2023-03-05T15:10:18.734Z,101612.16
2023-03-05T15:12:45.434Z,101601.34
2023-03-05T15:15:15.850Z,101600.50
2023-03-05T15:17:47.332Z,101588.69
2023-03-05T15:20:22.716Z,101590.75
2023-03-05T15:22:49.301Z,101591.78
2023-03-05T15:25:16.679Z,101590.41
2023-03-05T15:27:43.158Z,101585.94
2023-03-05T15:30:23.265Z,101582.44
2023-03-05T15:32:50.946Z,101577.22
2023-03-05T15:35:17.684Z,101580.00
2023-03-05T15:37:44.288Z,101580.84
2023-03-05T15:40:11.551Z,101572.66
2023-03-05T15:42:38.464Z,101557.69
2023-03-05T15:45:05.752Z,101562.38
2023-03-05T15:47:33.552Z,101562.38
2023-03-05T15:50:00.141Z,101560.44
2023-03-05T15:52:26.651Z,101561.00
2023-03-05T15:54:53.198Z,101549.47
2023-03-05T15:57:23.977Z,101550.00
2023-03-05T15:59:50.560Z,101552.25
2023-03-05T16:02:17.156Z,101548.50
2023-03-05T16:04:43.698Z,101542.44
2023-03-05T16:07:11.153Z,101533.28
2023-03-05T16:09:42.937Z,101541.19
2023-03-05T16:12:14.228Z,101529.81
2023-03-05T16:14:42.110Z,101536.47
2023-03-05T16:17:09.089Z,101524.84
2023-03-05T16:19:39.500Z,101531.09
2023-03-05T16:22:05.961Z,101523.88
2023-03-05T16:24:33.275Z,101530.25
2023-03-05T16:26:59.787Z,101518.63
2023-03-05T16:29:27.746Z,101518.47
2023-03-05T16:31:55.112Z,101514.19
2023-03-05T16:34:22.436Z,101517.78
2023-03-05T16:36:52.550Z,101512.53
2023-03-05T16:39:20.308Z,101511.25
2023-03-05T16:41:47.236Z,101511.25
2023-03-05T16:44:13.758Z,101511.25
2023-03-05T16:46:41.936Z,101509.75
2023-03-05T16:49:09.130Z,101503.78
2023-03-05T16:51:35.704Z,101507.22
2023-03-05T16:54:02.331Z,101497.91
2023-03-05T16:56:28.874Z,101501.81
2023-03-05T16:58:55.912Z,101490.44
2023-03-05T17:01:23.084Z,101493.09
2023-03-05T17:03:50.821Z,101495.13
2023-03-05T17:06:23.445Z,101489.34
2023-03-05T17:08:52.180Z,101484.06
2023-03-05T17:11:19.527Z,101491.00
2023-03-05T17:13:48.768Z,101492.09
2023-03-05T17:16:18.167Z,101485.31
2023-03-05T17:18:44.969Z,101482.25
2023-03-05T17:21:11.634Z,101481.56
2023-03-05T17:23:39.161Z,101479.31
2023-03-05T17:26:07.747Z,101488.47
2023-03-05T17:28:34.239Z,101478.34
2023-03-05T17:31:01.402Z,101472.13
2023-03-05T17:33:28.830Z,101475.72
2023-03-05T17:35:55.874Z,101469.06
2023-03-05T17:38:23.151Z,101474.34
2023-03-05T17:40:50.212Z,101477.78
2023-03-05T17:43:16.888Z,101483.19
2023-03-05T17:45:43.662Z,101471.81
2023-03-05T17:48:11.806Z,101475.56
2023-03-05T17:50:38.367Z,101476.53
2023-03-05T17:53:04.984Z,101465.72
2023-03-05T17:55:31.628Z,101474.03
2023-03-05T17:57:58.160Z,101479.84
2023-03-05T18:00:27.342Z,101467.91
2023-03-05T18:02:54.229Z,101472.63
2023-03-05T18:05:22.596Z,101473.44
2023-03-05T18:07:49.296Z,101469.56
2023-03-05T18:10:17.290Z,101469.56
2023-03-05T18:12:44.101Z,101471.09
2023-03-05T18:15:12.342Z,101464.84
2023-03-05T18:17:38.998Z,101464.84
2023-03-05T18:20:06.496Z,101466.94
2023-03-05T18:22:33.363Z,101463.34
2023-03-05T18:24:59.877Z,101451.25
2023-03-05T18:27:26.386Z,101455.13
2023-03-05T18:29:54.251Z,101466.34
2023-03-05T18:32:22.472Z,101459.28
2023-03-05T18:34:50.561Z,101455.94
2023-03-05T18:37:17.449Z,101457.59
2023-03-05T18:39:43.933Z,101465.22
2023-03-05T18:42:14.549Z,101460.50
2023-03-05T18:44:41.639Z,101457.59
2023-03-05T18:47:08.191Z,101457.97
2023-03-05T18:49:34.655Z,101448.16
2023-03-05T18:52:01.446Z,101445.09
2023-03-05T18:54:27.901Z,101444.97
2023-03-05T18:56:54.436Z,101443.03
2023-03-05T18:59:20.998Z,101441.22
2023-03-05T19:01:47.547Z,101444.81
2023-03-05T19:04:14.166Z,101437.19
2023-03-05T19:06:40.785Z,101427.22
2023-03-05T19:09:17.002Z,101424.47
2023-03-05T19:11:43.453Z,101418.75
2023-03-05T19:14:10.039Z,101429.03
2023-03-05T19:16:43.399Z,101423.88
2023-03-05T19:19:22.607Z,101415.44
2023-03-05T19:21:55.029Z,101414.16
2023-03-05T19:24:23.592Z,101417.19
2023-03-05T19:26:55.089Z,101407.66
2023-03-05T19:29:25.898Z,101407.66
2023-03-05T19:31:53.995Z,101398.63
2023-03-05T19:34:21.241Z,101403.19
2023-03-05T19:36:47.894Z,101396.81
2023-03-05T19:39:14.470Z,101400.13
2023-03-05T19:41:41.013Z,101398.75
2023-03-05T19:44:07.606Z,101387.53
2023-03-05T19:46:34.231Z,101377.69
2023-03-05T19:49:00.984Z,101374.91
2023-03-05T19:51:27.518Z,101375.06
2023-03-05T19:53:54.129Z,101375.22
2023-03-05T19:56:20.845Z,101376.44
2023-03-05T19:58:48.927Z,101371.31
2023-03-05T20:01:26.707Z,101371.91
2023-03-05T20:03:55.875Z,101368.41
2023-03-05T20:06:24.077Z,101362.19
2023-03-05T20:08:50.934Z,101363.97
2023-03-05T20:11:18.892Z,101366.59
2023-03-05T20:13:45.894Z,101368.50
2023-03-05T20:16:19.169Z,101369.38
2023-03-05T20:18:46.386Z,101353.00
2023-03-05T20:21:21.128Z,101353.97
2023-03-05T20:23:47.740Z,101357.72
2023-03-05T20:26:14.189Z,101361.31
2023-03-05T20:28:40.820Z,101348.81
2023-03-05T20:31:07.372Z,101358.75
2023-03-05T20:33:33.891Z,101353.88
2023-03-05T20:36:01.325Z,101352.63
2023-03-05T20:38:31.907Z,101354.69
2023-03-05T20:41:01.306Z,101357.00
2023-03-05T20:43:33.480Z,101355.59
2023-03-05T20:46:01.030Z,101342.16
2023-03-05T20:48:31.365Z,101336.91
2023-03-05T20:51:01.399Z,101336.66
2023-03-05T20:53:27.885Z,101342.03
2023-03-05T20:55:54.467Z,101328.06
2023-03-05T20:58:20.930Z,101330.81
2023-03-05T21:00:47.514Z,101328.19
2023-03-05T21:03:14.084Z,101338.59
2023-03-05T21:05:40.619Z,101317.69
2023-03-05T21:08:07.171Z,101321.28
2023-03-05T21:10:33.814Z,101320.47
2023-03-05T21:13:01.058Z,101320.47
2023-03-05T21:15:30.145Z,101314.94
2023-03-05T21:17:57.513Z,101302.78
2023-03-05T21:20:27.703Z,101305.41
2023-03-05T21:22:56.120Z,101298.50
2023-03-05T21:25:33.840Z,101300.97
2023-03-05T21:28:02.055Z,101300.66
2023-03-05T21:30:49.209Z,101297.34
2023-03-05T21:33:18.909Z,101292.91
2023-03-05T21:35:45.698Z,101297.63
2023-03-05T21:38:12.522Z,101283.94
2023-03-05T21:40:43.617Z,101289.22
2023-03-05T21:43:12.100Z,101287.22
2023-03-05T21:45:39.378Z,101286.91
2023-03-05T21:48:06.248Z,101285.78
2023-03-05T21:50:33.599Z,101280.63
2023-03-05T21:53:01.590Z,101280.34
2023-03-05T21:55:33.032Z,101276.88
2023-03-05T21:58:00.481Z,101266.06
2023-03-05T22:00:27.646Z,101271.31
2023-03-05T22:02:54.827Z,101262.75
2023-03-05T22:05:21.393Z,101265.47
2023-03-05T22:07:47.843Z,101268.25
2023-03-05T22:10:17.321Z,101266.31
2023-03-05T22:13:12.514Z,101269.06
2023-03-05T22:15:43.024Z,101262.16
2023-03-05T22:18:09.912Z,101255.50
2023-03-05T22:20:37.136Z,101249.44
2023-03-05T22:23:04.947Z,101251.63
2023-03-05T22:25:32.068Z,101237.19
2023-03-05T22:27:58.584Z,101243.03
2023-03-05T22:30:25.104Z,101225.88
2023-03-05T22:32:51.762Z,101236.94
2023-03-05T22:35:18.340Z,101226.41
2023-03-05T22:37:44.972Z,101226.66
2023-03-05T22:40:17.521Z,101213.66
2023-03-05T22:42:44.861Z,101207.59
2023-03-05T22:45:13.744Z,101212.25
2023-03-05T22:47:40.319Z,101208.09
2023-03-05T22:50:07.522Z,101205.03
2023-03-05T22:52:34.023Z,101201.97
2023-03-05T22:55:03.081Z,101198.63
2023-03-05T22:57:29.998Z,101204.69
2023-03-05T22:59:56.600Z,101198.91
2023-03-05T23:02:23.132Z,101206.63
2023-03-05T23:04:54.799Z,101201.38
2023-03-05T23:07:26.693Z,101196.53
2023-03-05T23:09:53.092Z,101202.22
2023-03-05T23:12:19.653Z,101196.38
2023-03-05T23:14:46.106Z,101192.09
2023-03-05T23:17:12.747Z,101190.56
2023-03-05T23:19:39.944Z,101195.81
2023-03-05T23:22:08.588Z,101190.84
2023-03-05T23:24:35.291Z,101183.94
2023-03-05T23:27:05.206Z,101179.63
2023-03-05T23:29:38.454Z,101171.78
2023-03-05T23:32:05.354Z,101171.06
2023-03-05T23:34:31.848Z,101158.22
2023-03-05T23:37:00.421Z,101158.22
2023-03-05T23:39:26.937Z,101164.53
2023-03-05T23:41:53.575Z,101155.28
2023-03-05T23:44:20.227Z,101157.47
2023-03-05T23:46:46.689Z,101154.84
2023-03-05T23:49:13.219Z,101154.50
2023-03-05T23:51:39.771Z,101155.72
2023-03-05T23:54:06.394Z,101155.97
2023-03-05T23:56:32.904Z,101152.19
2023-03-05T23:59:00.669Z,101155.19
